Time;durP1;ratioP1;P1;durP2;ratioP2;P2;SDS_P1;SDS_P2;PMS_P1;PMS_P2;Temp;Humidity;BMP_temperature;BMP_pressure;BME280_temperature;BME280_humidity;BME280_pressure;Samples;Min_cycle;Max_cycle;Signal;HPM_P1;HPM_P2
2023/09/14 00:00:47;;;;;;;0.10;0.10;;;15.10;99.90;;;;;;4987546;28;20227;-81
2023/09/14 00:03:12;;;;;;;0.10;0.10;;;15.10;99.90;;;;;;4988466;28;20734;-79
2023/09/14 00:05:43;;;;;;;0.10;0.10;;;15.10;99.90;;;;;;4987332;28;20222;-79
2023/09/14 00:08:09;;;;;;;0.10;0.10;;;15.00;99.90;;;;;;4980125;28;20196;-79
2023/09/14 00:10:35;;;;;;;0.10;0.10;;;15.10;99.90;;;;;;4986716;28;20920;-79
2023/09/14 00:13:01;;;;;;;0.10;0.10;;;15.00;99.90;;;;;;4980338;28;20184;-79
2023/09/14 00:15:27;;;;;;;0.10;0.10;;;15.00;99.90;;;;;;4980699;28;20578;-79
2023/09/14 00:17:53;;;;;;;0.10;0.10;;;14.90;99.90;;;;;;4986922;28;20211;-79
2023/09/14 00:20:20;;;;;;;0.10;0.10;;;14.90;99.90;;;;;;4980626;28;20208;-79
2023/09/14 00:22:47;;;;;;;0.10;0.10;;;15.00;99.90;;;;;;4987130;28;20256;-79
2023/09/14 00:25:12;;;;;;;0.10;0.10;;;15.10;99.90;;;;;;4994298;28;20207;-79
2023/09/14 00:27:38;;;;;;;0.03;0.03;;;15.00;99.90;;;;;;4979816;28;20718;-79
2023/09/14 00:30:04;;;;;;;0.10;0.10;;;15.00;99.90;;;;;;4978930;28;20253;-79
2023/09/14 00:32:29;;;;;;;0.10;0.10;;;15.00;99.90;;;;;;4980051;28;20192;-79
2023/09/14 00:34:54;;;;;;;0.10;0.10;;;14.90;99.90;;;;;;4986305;28;20213;-79
2023/09/14 00:37:20;;;;;;;0.10;0.10;;;14.90;99.90;;;;;;4987642;28;20259;-79
2023/09/14 00:39:45;;;;;;;0.10;0.10;;;14.90;99.90;;;;;;4980425;28;20304;-79
2023/09/14 00:42:11;;;;;;;0.10;0.10;;;14.90;99.90;;;;;;4979533;28;20215;-79
2023/09/14 00:44:36;;;;;;;0.10;0.10;;;14.90;99.90;;;;;;4981304;28;20207;-79
2023/09/14 00:47:03;;;;;;;0.10;0.10;;;15.10;99.90;;;;;;4981648;28;20208;-79
2023/09/14 00:49:28;;;;;;;0.10;0.10;;;15.10;99.90;;;;;;4980048;28;20529;-79
2023/09/14 00:51:54;;;;;;;0.10;0.10;;;15.20;99.90;;;;;;4979115;28;20218;-79
2023/09/14 00:54:20;;;;;;;0.10;0.10;;;15.30;99.90;;;;;;4977253;28;20193;-79
2023/09/14 00:56:46;;;;;;;0.10;0.10;;;15.10;99.90;;;;;;4980023;28;20262;-79
2023/09/14 00:59:11;;;;;;;0.10;0.10;;;14.90;99.90;;;;;;4979277;28;20596;-79
2023/09/14 01:01:37;;;;;;;0.10;0.10;;;14.80;99.90;;;;;;4981140;28;20219;-79
2023/09/14 01:04:05;;;;;;;0.10;0.10;;;14.80;99.90;;;;;;4980618;28;20634;-79
2023/09/14 01:06:32;;;;;;;0.10;0.10;;;14.80;99.90;;;;;;4985004;28;20599;-79
2023/09/14 01:08:58;;;;;;;0.10;0.10;;;14.80;99.90;;;;;;4991682;28;20195;-79
2023/09/14 01:11:23;;;;;;;0.10;0.10;;;14.70;99.90;;;;;;4987279;28;20265;-79
2023/09/14 01:14:08;;;;;;;0.10;0.10;;;14.70;99.90;;;;;;4986082;28;20191;-79
2023/09/14 01:16:45;;;;;;;0.10;0.10;;;14.70;99.90;;;;;;4980507;28;20214;-79
2023/09/14 01:19:42;;;;;;;0.10;0.10;;;14.70;99.90;;;;;;4978385;28;20555;-79
2023/09/14 01:22:41;;;;;;;0.10;0.10;;;14.90;99.90;;;;;;4992766;28;20262;-79
2023/09/14 01:25:39;;;;;;;0.10;0.10;;;14.60;99.90;;;;;;4994235;28;20199;-80
2023/09/14 01:28:13;;;;;;;0.10;0.10;;;14.40;99.90;;;;;;4980433;28;20257;-79
2023/09/14 01:30:38;;;;;;;0.10;0.10;;;14.20;99.90;;;;;;4987016;28;20228;-79
2023/09/14 01:33:06;;;;;;;0.10;0.10;;;14.20;99.90;;;;;;4979574;28;20210;-79
2023/09/14 01:35:37;;;;;;;0.10;0.10;;;14.20;99.90;;;;;;4980652;28;20230;-79
2023/09/14 01:38:03;;;;;;;0.10;0.10;;;14.10;99.90;;;;;;4988241;28;20245;-79
2023/09/14 01:40:30;;;;;;;0.10;0.10;;;14.10;99.90;;;;;;4982641;28;20259;-79
2023/09/14 01:42:55;;;;;;;0.10;0.10;;;14.00;99.90;;;;;;4983054;28;20572;-79
2023/09/14 01:45:21;;;;;;;0.10;0.10;;;14.00;99.90;;;;;;4988877;28;20229;-79
2023/09/14 01:47:52;;;;;;;0.10;0.10;;;14.00;99.90;;;;;;4989461;28;20188;-79
2023/09/14 01:50:17;;;;;;;0.10;0.10;;;14.00;99.90;;;;;;4988787;28;20580;-79
2023/09/14 01:52:43;;;;;;;0.10;0.10;;;14.10;99.90;;;;;;4982141;28;20183;-79
2023/09/14 01:55:10;;;;;;;0.10;0.10;;;14.10;99.90;;;;;;4981795;28;20199;-79
2023/09/14 01:57:35;;;;;;;0.10;0.10;;;14.10;99.90;;;;;;4983114;28;21080;-79
2023/09/14 02:00:01;;;;;;;0.10;0.10;;;14.30;99.90;;;;;;4989171;28;20187;-79
2023/09/14 02:02:27;;;;;;;0.10;0.10;;;14.40;99.90;;;;;;4988680;28;20219;-79
2023/09/14 02:04:52;;;;;;;0.10;0.10;;;14.30;99.90;;;;;;4989201;28;20568;-79
2023/09/14 02:07:18;;;;;;;0.10;0.10;;;14.20;99.90;;;;;;4984315;28;20187;-79
2023/09/14 02:09:43;;;;;;;0.10;0.10;;;14.10;99.90;;;;;;4982494;28;20202;-79
2023/09/14 02:12:09;;;;;;;0.10;0.10;;;13.90;99.90;;;;;;4982003;28;20708;-79
2023/09/14 02:14:34;;;;;;;0.10;0.10;;;13.80;99.90;;;;;;4982811;28;20270;-79
2023/09/14 02:17:00;;;;;;;0.10;0.10;;;13.80;99.90;;;;;;4982949;28;20189;-79
2023/09/14 02:19:25;;;;;;;0.10;0.10;;;13.80;99.90;;;;;;4981840;28;20196;-79
2023/09/14 02:21:51;;;;;;;0.10;0.10;;;13.70;99.90;;;;;;4980889;28;20195;-79
2023/09/14 02:24:16;;;;;;;0.10;0.10;;;13.70;99.90;;;;;;4983827;28;20659;-81
2023/09/14 02:26:42;;;;;;;0.10;0.10;;;13.60;99.90;;;;;;4983432;28;20207;-79
2023/09/14 02:29:07;;;;;;;0.10;0.10;;;13.50;99.90;;;;;;4988498;28;20192;-79
2023/09/14 02:31:34;;;;;;;0.10;0.10;;;13.60;99.90;;;;;;4982045;28;20228;-79
2023/09/14 02:33:59;;;;;;;0.10;0.10;;;13.60;99.90;;;;;;4982267;28;20207;-79
2023/09/14 02:36:26;;;;;;;0.10;0.10;;;13.50;99.90;;;;;;4989425;28;20258;-79
2023/09/14 02:38:52;;;;;;;0.10;0.10;;;13.50;99.90;;;;;;4981829;28;20185;-80
2023/09/14 02:41:18;;;;;;;0.10;0.10;;;13.30;99.90;;;;;;4989744;28;20197;-79
2023/09/14 02:43:43;;;;;;;0.10;0.10;;;13.40;99.90;;;;;;4982973;28;20247;-79
2023/09/14 02:46:09;;;;;;;0.10;0.10;;;13.40;99.90;;;;;;4981102;28;20227;-79
2023/09/14 02:48:34;;;;;;;0.10;0.10;;;13.50;99.90;;;;;;4982384;28;20202;-79
2023/09/14 02:51:00;;;;;;;0.10;0.10;;;13.60;99.90;;;;;;4982016;28;20249;-79
2023/09/14 02:53:25;;;;;;;0.10;0.10;;;13.60;99.90;;;;;;4981292;28;20240;-79
2023/09/14 02:55:51;;;;;;;0.10;0.10;;;13.50;99.90;;;;;;4982120;28;20757;-79
2023/09/14 02:58:16;;;;;;;0.10;0.10;;;13.50;99.90;;;;;;4980823;28;20865;-79
2023/09/14 03:00:42;;;;;;;0.10;0.10;;;13.30;99.90;;;;;;4980711;28;20191;-79
2023/09/14 03:03:11;;;;;;;0.10;0.10;;;13.30;99.90;;;;;;4982464;28;20195;-79
2023/09/14 03:05:37;;;;;;;0.10;0.10;;;13.30;99.90;;;;;;4982248;28;20215;-79
2023/09/14 03:08:03;;;;;;;0.10;0.10;;;13.20;99.90;;;;;;4981042;28;20335;-79
2023/09/14 03:10:28;;;;;;;0.10;0.10;;;13.30;99.90;;;;;;4979111;28;20299;-79
2023/09/14 03:12:54;;;;;;;0.10;0.10;;;13.30;99.90;;;;;;4981306;28;20184;-79
2023/09/14 03:15:19;;;;;;;0.10;0.10;;;13.30;99.90;;;;;;4987773;28;20612;-79
2023/09/14 03:17:45;;;;;;;0.10;0.10;;;13.20;99.90;;;;;;4983088;28;20705;-79
2023/09/14 03:20:11;;;;;;;0.10;0.10;;;13.10;99.90;;;;;;4988128;28;20185;-79
2023/09/14 03:22:36;;;;;;;0.00;0.00;;;13.00;99.90;;;;;;4987608;28;20188;-79
2023/09/14 03:25:02;;;;;;;0.00;0.00;;;12.90;99.90;;;;;;4982064;28;20210;-79
2023/09/14 03:27:28;;;;;;;0.10;0.10;;;12.90;99.90;;;;;;4987672;28;20186;-79
2023/09/14 03:29:53;;;;;;;0.10;0.10;;;12.90;99.90;;;;;;4988516;28;20665;-79
2023/09/14 03:32:19;;;;;;;0.00;0.00;;;12.80;99.90;;;;;;4982080;28;20195;-79
2023/09/14 03:34:44;;;;;;;0.10;0.10;;;13.00;99.90;;;;;;4996990;28;20999;-79
2023/09/14 03:37:10;;;;;;;0.10;0.10;;;13.20;99.90;;;;;;4979992;28;20190;-79
2023/09/14 03:39:36;;;;;;;0.10;0.10;;;13.40;99.90;;;;;;4995264;28;20197;-79
2023/09/14 03:42:01;;;;;;;0.10;0.10;;;13.60;99.90;;;;;;4986055;28;20882;-79
2023/09/14 03:44:27;;;;;;;0.10;0.10;;;13.70;99.90;;;;;;4981296;28;20201;-79
2023/09/14 03:46:52;;;;;;;0.10;0.10;;;13.80;99.90;;;;;;4981493;28;20177;-79
2023/09/14 03:49:18;;;;;;;0.10;0.10;;;13.80;99.90;;;;;;4981381;28;20179;-79
2023/09/14 03:51:43;;;;;;;0.10;0.10;;;13.70;99.90;;;;;;4978584;28;20257;-79
2023/09/14 03:54:09;;;;;;;0.10;0.10;;;13.70;99.90;;;;;;4979193;28;20261;-79
2023/09/14 03:56:35;;;;;;;0.10;0.10;;;13.70;99.90;;;;;;4984835;28;20182;-79
2023/09/14 03:59:01;;;;;;;0.10;0.10;;;13.80;99.90;;;;;;4980258;28;20190;-79
2023/09/14 04:01:26;;;;;;;0.10;0.10;;;13.80;99.90;;;;;;4987238;28;20194;-79
2023/09/14 04:03:52;;;;;;;0.10;0.10;;;13.70;99.90;;;;;;4987909;28;20682;-79
2023/09/14 04:06:17;;;;;;;0.10;0.10;;;13.70;99.90;;;;;;4979314;28;20198;-79
2023/09/14 04:08:43;;;;;;;0.10;0.10;;;13.80;99.90;;;;;;4980239;28;20201;-79
2023/09/14 04:11:09;;;;;;;0.10;0.10;;;13.80;99.90;;;;;;4981014;28;20227;-79
2023/09/14 04:13:35;;;;;;;0.10;0.10;;;13.90;99.90;;;;;;4986752;28;20190;-79
2023/09/14 04:16:02;;;;;;;0.10;0.10;;;14.00;99.90;;;;;;4987813;28;20186;-79
2023/09/14 04:18:29;;;;;;;0.10;0.10;;;14.00;99.90;;;;;;4979776;28;20194;-79
2023/09/14 04:20:55;;;;;;;0.10;0.10;;;14.00;99.90;;;;;;4981678;28;20193;-79
2023/09/14 04:23:21;;;;;;;0.10;0.10;;;14.00;99.90;;;;;;4988634;28;20749;-79
2023/09/14 04:25:47;;;;;;;0.10;0.10;;;13.90;99.90;;;;;;4987389;28;20231;-79
2023/09/14 04:28:14;;;;;;;0.10;0.10;;;13.80;99.90;;;;;;4980568;28;20262;-79
2023/09/14 04:30:58;;;;;;;0.10;0.10;;;13.80;99.90;;;;;;4981151;28;20549;-79
2023/09/14 04:33:24;;;;;;;0.10;0.10;;;13.90;99.90;;;;;;4988662;28;20300;-79
2023/09/14 04:35:56;;;;;;;0.10;0.10;;;13.90;99.90;;;;;;4986230;28;20210;-79
2023/09/14 04:38:22;;;;;;;0.10;0.10;;;13.90;99.90;;;;;;4980512;28;20235;-79
2023/09/14 04:40:48;;;;;;;0.10;0.10;;;13.90;99.90;;;;;;4984903;28;20187;-79
2023/09/14 04:43:14;;;;;;;0.10;0.10;;;13.90;99.90;;;;;;4979887;28;20279;-79
2023/09/14 04:45:40;;;;;;;0.10;0.10;;;13.60;99.90;;;;;;4979884;28;20696;-79
2023/09/14 04:48:06;;;;;;;0.10;0.10;;;13.50;99.90;;;;;;4979764;28;20260;-79
2023/09/14 04:50:31;;;;;;;0.10;0.10;;;13.50;99.90;;;;;;4987897;28;20199;-79
2023/09/14 04:52:57;;;;;;;0.10;0.10;;;13.60;99.90;;;;;;4980351;28;20556;-79
2023/09/14 04:55:23;;;;;;;0.10;0.10;;;13.60;99.90;;;;;;4986711;28;20200;-79
2023/09/14 04:57:48;;;;;;;0.10;0.10;;;13.60;99.90;;;;;;4985324;28;20187;-79
2023/09/14 05:00:14;;;;;;;0.10;0.10;;;13.60;99.90;;;;;;4989569;28;20190;-81
2023/09/14 05:02:40;;;;;;;0.10;0.10;;;13.50;99.90;;;;;;4980830;28;20191;-79
2023/09/14 05:05:08;;;;;;;0.10;0.10;;;13.50;99.90;;;;;;4979500;28;20260;-79
2023/09/14 05:07:34;;;;;;;0.10;0.10;;;13.60;99.90;;;;;;4978730;28;20300;-79
2023/09/14 05:09:59;;;;;;;0.10;0.10;;;13.60;99.90;;;;;;4989845;28;20278;-81
2023/09/14 05:12:25;;;;;;;0.10;0.10;;;13.70;99.90;;;;;;4981070;28;20192;-79
2023/09/14 05:14:50;;;;;;;0.10;0.10;;;13.60;99.90;;;;;;4982516;28;20201;-77
2023/09/14 05:17:16;;;;;;;0.10;0.10;;;13.70;99.90;;;;;;4982959;28;20716;-77
2023/09/14 05:19:42;;;;;;;0.10;0.10;;;13.80;99.90;;;;;;4982017;28;20186;-78
2023/09/14 05:22:11;;;;;;;0.10;0.10;;;14.00;99.90;;;;;;4980557;28;20191;-78
2023/09/14 05:24:40;;;;;;;0.10;0.10;;;14.00;99.90;;;;;;4988324;28;20210;-78
2023/09/14 05:27:06;;;;;;;0.10;0.10;;;14.10;99.90;;;;;;4980322;28;20198;-78
2023/09/14 05:29:32;;;;;;;0.10;0.10;;;14.10;99.90;;;;;;4989581;28;20189;-79
2023/09/14 05:31:57;;;;;;;0.03;0.03;;;14.10;99.90;;;;;;4981707;28;20208;-79
2023/09/14 05:34:23;;;;;;;0.10;0.10;;;14.20;99.90;;;;;;4990065;28;20681;-78
2023/09/14 05:36:49;;;;;;;0.10;0.10;;;14.30;99.90;;;;;;4997051;28;20187;-79
2023/09/14 05:39:14;;;;;;;0.10;0.10;;;14.30;99.90;;;;;;4980024;28;20207;-79
2023/09/14 05:41:40;;;;;;;0.10;0.10;;;14.30;99.90;;;;;;4983354;28;20206;-79
2023/09/14 05:44:09;;;;;;;0.10;0.10;;;14.20;99.90;;;;;;4988478;28;20215;-78
2023/09/14 05:46:35;;;;;;;0.10;0.10;;;14.20;99.90;;;;;;4982421;28;20179;-79
2023/09/14 05:49:00;;;;;;;0.00;0.00;;;14.20;99.90;;;;;;4984051;28;21045;-80
2023/09/14 05:51:26;;;;;;;0.10;0.10;;;14.30;99.90;;;;;;4989391;28;20797;-80
2023/09/14 05:53:51;;;;;;;0.10;0.10;;;14.40;99.90;;;;;;4984535;28;20180;-80
2023/09/14 05:56:17;;;;;;;0.10;0.10;;;14.60;99.90;;;;;;4980925;28;20195;-80
2023/09/14 05:58:42;;;;;;;0.10;0.10;;;14.80;99.90;;;;;;4990322;28;20583;-80
2023/09/14 06:01:08;;;;;;;0.10;0.10;;;14.90;99.90;;;;;;4991123;28;20199;-80
2023/09/14 06:03:33;;;;;;;0.10;0.10;;;15.00;99.90;;;;;;4981359;28;20232;-80
2023/09/14 06:05:59;;;;;;;0.10;0.10;;;15.10;99.90;;;;;;4982642;28;20219;-80
2023/09/14 06:08:24;;;;;;;0.10;0.10;;;15.20;99.90;;;;;;4991290;28;20667;-80
2023/09/14 06:10:50;;;;;;;0.10;0.10;;;15.30;99.90;;;;;;4990529;28;20255;-79
2023/09/14 06:13:17;;;;;;;0.10;0.10;;;15.40;99.90;;;;;;4989382;28;20274;-80
2023/09/14 06:15:43;;;;;;;0.10;0.10;;;15.50;99.90;;;;;;4981972;28;20741;-80
2023/09/14 06:18:08;;;;;;;0.10;0.10;;;15.70;99.90;;;;;;4988902;28;20180;-80
2023/09/14 06:20:34;;;;;;;0.10;0.10;;;15.80;99.90;;;;;;4989726;28;20184;-80
2023/09/14 06:22:59;;;;;;;0.10;0.10;;;15.90;99.90;;;;;;4989649;28;20195;-80
2023/09/14 06:25:25;;;;;;;0.10;0.10;;;16.00;99.90;;;;;;4981924;28;20258;-80
2023/09/14 06:27:50;;;;;;;0.10;0.10;;;16.20;99.90;;;;;;4989124;28;20597;-80
2023/09/14 06:30:16;;;;;;;0.10;0.10;;;16.40;99.90;;;;;;4989190;28;20283;-80
2023/09/14 06:32:41;;;;;;;0.10;0.10;;;16.50;99.90;;;;;;4989275;28;20243;-80
2023/09/14 06:35:07;;;;;;;0.10;0.10;;;16.60;99.90;;;;;;4979240;28;20212;-80
2023/09/14 06:37:33;;;;;;;0.10;0.10;;;16.70;99.90;;;;;;4982739;28;20191;-80
2023/09/14 06:39:58;;;;;;;0.10;0.10;;;16.80;99.90;;;;;;4981357;28;20188;-80
2023/09/14 06:42:24;;;;;;;0.10;0.10;;;17.00;99.90;;;;;;4985364;28;20206;-80
2023/09/14 06:44:49;;;;;;;0.10;0.10;;;17.10;99.90;;;;;;4980685;28;20631;-80
2023/09/14 06:47:15;;;;;;;0.10;0.10;;;17.30;99.90;;;;;;4980589;28;20200;-80
2023/09/14 06:49:41;;;;;;;0.10;0.10;;;17.40;99.90;;;;;;4980855;28;20234;-80
2023/09/14 06:52:07;;;;;;;0.10;0.10;;;17.50;99.90;;;;;;4994295;28;20224;-80
2023/09/14 06:54:32;;;;;;;0.10;0.10;;;17.60;99.90;;;;;;4979841;28;20258;-81
2023/09/14 06:56:58;;;;;;;0.10;0.10;;;17.50;99.90;;;;;;4987273;28;20215;-82
2023/09/14 06:59:23;;;;;;;0.10;0.10;;;17.00;99.90;;;;;;4987462;28;20200;-81
2023/09/14 07:01:50;;;;;;;0.10;0.10;;;16.90;99.90;;;;;;4981704;28;20196;-82
2023/09/14 07:04:15;;;;;;;0.10;0.10;;;17.10;99.90;;;;;;4980605;28;20265;-81
2023/09/14 07:06:41;;;;;;;0.10;0.10;;;17.20;99.90;;;;;;4979947;28;20683;-80
2023/09/14 07:09:07;;;;;;;0.10;0.10;;;17.10;99.90;;;;;;4981650;28;20193;-80
2023/09/14 07:11:34;;;;;;;0.10;0.10;;;17.20;99.90;;;;;;4985637;28;20267;-80
2023/09/14 07:14:00;;;;;;;0.10;0.10;;;17.20;99.90;;;;;;4981118;28;20699;-80
2023/09/14 07:16:25;;;;;;;0.10;0.10;;;17.20;99.90;;;;;;4980260;28;20262;-80
2023/09/14 07:18:51;;;;;;;0.10;0.10;;;17.30;99.90;;;;;;4979835;28;20289;-80
2023/09/14 07:21:16;;;;;;;0.10;0.10;;;17.40;99.90;;;;;;4985725;28;20310;-80
2023/09/14 07:23:42;;;;;;;0.10;0.10;;;17.70;99.90;;;;;;4985680;28;20287;-81
2023/09/14 07:26:07;;;;;;;0.10;0.10;;;17.90;99.90;;;;;;4979202;28;20216;-81
2023/09/14 07:28:33;;;;;;;0.10;0.10;;;18.00;99.90;;;;;;4979657;28;20184;-80
2023/09/14 07:31:03;;;;;;;0.10;0.10;;;18.20;99.90;;;;;;4981252;28;20203;-81
2023/09/14 07:33:29;;;;;;;0.10;0.10;;;18.30;99.90;;;;;;4979028;28;20226;-80
2023/09/14 07:35:55;;;;;;;0.10;0.10;;;18.30;99.90;;;;;;4995411;28;20204;-81
2023/09/14 07:38:21;;;;;;;0.10;0.10;;;18.50;99.90;;;;;;4979017;28;20183;-81
2023/09/14 07:40:48;;;;;;;0.10;0.10;;;18.70;99.90;;;;;;4980813;28;20191;-80
2023/09/14 07:43:13;;;;;;;0.10;0.10;;;18.90;99.90;;;;;;4980675;28;20668;-82
2023/09/14 07:45:40;;;;;;;0.10;0.10;;;19.10;99.90;;;;;;4988725;28;20232;-83
2023/09/14 07:48:07;;;;;;;0.10;0.10;;;19.20;99.90;;;;;;4981387;28;20733;-81
2023/09/14 07:50:36;;;;;;;0.10;0.10;;;18.10;99.90;;;;;;4979663;28;20221;-82
2023/09/14 07:53:03;;;;;;;0.10;0.10;;;18.00;99.90;;;;;;4981132;28;20972;-83
2023/09/14 07:55:29;;;;;;;0.10;0.10;;;18.20;99.90;;;;;;4978582;28;20203;-81
2023/09/14 07:57:55;;;;;;;0.10;0.10;;;17.60;99.90;;;;;;4979901;28;20194;-82
2023/09/14 08:00:20;;;;;;;0.10;0.10;;;18.00;99.90;;;;;;4988283;28;20718;-81
2023/09/14 08:02:46;;;;;;;0.10;0.10;;;18.30;99.90;;;;;;4986366;28;20188;-81
2023/09/14 08:05:11;;;;;;;0.10;0.10;;;17.90;99.90;;;;;;4981353;28;20211;-81
2023/09/14 08:07:37;;;;;;;0.10;0.10;;;18.10;99.90;;;;;;4997113;28;20238;-82
2023/09/14 08:10:03;;;;;;;0.10;0.10;;;18.50;99.90;;;;;;4979518;28;20188;-81
2023/09/14 08:12:28;;;;;;;0.10;0.10;;;18.80;99.90;;;;;;4980879;28;20207;-81
2023/09/14 08:14:54;;;;;;;0.10;0.10;;;18.80;99.90;;;;;;4981552;28;20211;-81
2023/09/14 08:17:19;;;;;;;0.10;0.10;;;18.90;99.90;;;;;;4980745;28;20259;-82
2023/09/14 08:19:45;;;;;;;0.10;0.10;;;18.60;99.90;;;;;;4981405;28;20278;-81
2023/09/14 08:22:10;;;;;;;0.10;0.10;;;18.40;99.90;;;;;;4980937;28;20234;-82
2023/09/14 08:24:36;;;;;;;0.10;0.10;;;17.90;99.90;;;;;;4980372;28;20700;-81
2023/09/14 08:27:01;;;;;;;0.20;0.20;;;18.00;99.90;;;;;;4987736;28;20195;-81
2023/09/14 08:29:27;;;;;;;0.10;0.10;;;17.70;99.90;;;;;;4979252;28;20292;-82
2023/09/14 08:31:53;;;;;;;0.10;0.10;;;17.80;99.90;;;;;;4986642;28;20200;-81
2023/09/14 08:34:18;;;;;;;0.10;0.10;;;18.50;99.90;;;;;;4980267;28;20211;-82
2023/09/14 08:36:44;;;;;;;0.10;0.10;;;18.60;99.90;;;;;;4977716;28;20186;-83
2023/09/14 08:39:09;;;;;;;0.10;0.10;;;18.80;99.90;;;;;;4985859;28;20335;-82
2023/09/14 08:41:37;;;;;;;0.10;0.10;;;19.10;99.90;;;;;;4984700;28;20648;-81
2023/09/14 08:44:06;;;;;;;0.10;0.10;;;19.00;99.90;;;;;;4981733;28;20588;-81
2023/09/14 08:46:33;;;;;;;0.10;0.10;;;18.70;99.90;;;;;;4987502;28;20191;-81
2023/09/14 08:48:59;;;;;;;0.10;0.10;;;19.40;99.90;;;;;;4989529;28;20189;-81
2023/09/14 08:51:28;;;;;;;0.10;0.10;;;19.90;99.90;;;;;;4982244;28;20221;-81
2023/09/14 08:53:55;;;;;;;0.10;0.10;;;19.80;99.90;;;;;;4987066;28;20401;-82
2023/09/14 08:56:22;;;;;;;0.10;0.10;;;19.50;99.90;;;;;;4995558;28;20190;-78
2023/09/14 08:58:48;;;;;;;0.10;0.10;;;19.10;99.90;;;;;;4985370;28;20180;-80
2023/09/14 09:01:17;;;;;;;0.10;0.10;;;19.60;99.90;;;;;;4988130;28;20272;-81
2023/09/14 09:03:43;;;;;;;0.10;0.10;;;20.30;99.90;;;;;;4988262;28;21204;-81
2023/09/14 09:06:09;;;;;;;0.10;0.10;;;19.40;99.90;;;;;;4975178;28;20208;-80
2023/09/14 09:08:36;;;;;;;0.10;0.10;;;19.70;99.90;;;;;;4972370;28;20206;-81
2023/09/14 09:11:03;;;;;;;0.10;0.10;;;19.50;99.90;;;;;;4971858;28;20216;-81
2023/09/14 09:13:40;;;;;;;0.10;0.10;;;19.40;99.90;;;;;;4987179;28;20270;-81
2023/09/14 09:16:05;;;;;;;0.10;0.10;;;19.80;99.90;;;;;;4982312;28;20207;-81
2023/09/14 09:18:31;;;;;;;0.10;0.10;;;20.00;99.90;;;;;;4982771;28;20660;-83
2023/09/14 09:20:57;;;;;;;0.10;0.10;;;20.50;99.90;;;;;;4981394;28;20195;-81
2023/09/14 09:23:25;;;;;;;0.10;0.10;;;20.30;99.90;;;;;;4988762;28;21112;-81
2023/09/14 09:25:54;;;;;;;0.10;0.10;;;20.50;99.90;;;;;;4982733;28;20679;-83
2023/09/14 09:28:29;;;;;;;0.10;0.10;;;20.30;99.90;;;;;;4996610;28;20203;-81
2023/09/14 09:30:54;;;;;;;0.10;0.10;;;20.50;99.90;;;;;;4981814;28;20203;-83
2023/09/14 09:33:33;;;;;;;1.80;1.80;;;21.30;99.90;;;;;;4980565;28;20202;-82
2023/09/14 09:36:00;;;;;;;0.10;0.10;;;21.70;99.90;;;;;;4980462;28;20729;-82
2023/09/14 09:38:27;;;;;;;0.10;0.10;;;22.50;99.90;;;;;;4983693;28;20192;-82
2023/09/14 09:40:53;;;;;;;0.10;0.10;;;23.00;99.90;;;;;;4983035;28;20210;-81
2023/09/14 09:43:19;;;;;;;0.10;0.10;;;23.20;99.90;;;;;;4995221;28;20208;-82
2023/09/14 09:45:46;;;;;;;0.10;0.10;;;22.90;99.90;;;;;;4981007;28;20215;-82
2023/09/14 09:48:12;;;;;;;0.10;0.10;;;23.20;99.90;;;;;;4989089;28;20203;-82
2023/09/14 09:50:38;;;;;;;0.10;0.10;;;23.20;99.90;;;;;;4987544;28;20236;-82
2023/09/14 09:53:15;;;;;;;0.10;0.10;;;23.30;99.90;;;;;;4988303;28;20187;-81
2023/09/14 09:55:44;;;;;;;0.10;0.10;;;23.60;99.90;;;;;;4978262;28;20211;-82
2023/09/14 09:58:10;;;;;;;0.10;0.10;;;22.70;99.90;;;;;;4987951;28;20271;-81
2023/09/14 10:00:37;;;;;;;0.10;0.10;;;22.50;99.90;;;;;;4977476;28;20283;-81
2023/09/14 10:03:03;;;;;;;0.10;0.10;;;21.50;99.90;;;;;;4981554;28;20188;-81
2023/09/14 10:05:55;;;;;;;0.10;0.10;;;21.30;99.90;;;;;;4981799;28;20274;-82
2023/09/14 10:08:21;;;;;;;0.10;0.10;;;21.00;99.90;;;;;;4977595;28;20209;-81
2023/09/14 10:10:52;;;;;;;0.10;0.10;;;21.00;99.90;;;;;;4980116;28;20211;-81
2023/09/14 10:13:24;;;;;;;0.10;0.10;;;20.70;99.90;;;;;;4978773;28;20271;-81
2023/09/14 10:15:55;;;;;;;0.10;0.10;;;20.20;99.90;;;;;;4976299;28;20683;-81
2023/09/14 10:18:21;;;;;;;0.10;0.10;;;20.70;99.90;;;;;;4984601;28;20634;-81
2023/09/14 10:20:51;;;;;;;0.10;0.10;;;21.20;99.90;;;;;;4981130;28;20191;-81
2023/09/14 10:23:18;;;;;;;0.10;0.10;;;20.50;99.90;;;;;;4981435;28;20199;-81
2023/09/14 10:25:49;;;;;;;0.10;0.10;;;20.40;99.90;;;;;;4987777;28;20246;-81
2023/09/14 10:28:16;;;;;;;0.10;0.10;;;20.10;99.90;;;;;;4986594;28;20215;-80
2023/09/14 10:30:45;;;;;;;0.10;0.10;;;20.20;99.90;;;;;;4986846;28;20242;-80
2023/09/14 10:33:11;;;;;;;0.10;0.10;;;20.30;99.90;;;;;;4988632;28;20215;-80
2023/09/14 10:35:39;;;;;;;0.10;0.10;;;20.30;99.90;;;;;;4984099;28;20299;-81
2023/09/14 10:38:09;;;;;;;0.10;0.10;;;20.60;99.90;;;;;;4986568;28;20647;-80
2023/09/14 10:40:38;;;;;;;0.10;0.10;;;21.10;99.90;;;;;;4993461;28;20242;-80
2023/09/14 10:43:07;;;;;;;0.10;0.10;;;20.90;99.90;;;;;;4982730;28;20235;-79
2023/09/14 10:45:39;;;;;;;0.10;0.10;;;20.30;99.90;;;;;;4987534;28;20211;-81
2023/09/14 10:48:08;;;;;;;0.10;0.10;;;20.80;99.90;;;;;;4988784;28;20215;-80
2023/09/14 10:50:34;;;;;;;0.10;0.10;;;20.50;99.90;;;;;;4986648;28;20217;-80
2023/09/14 10:53:01;;;;;;;0.10;0.10;;;20.80;99.90;;;;;;4985288;28;20195;-80
2023/09/14 10:55:27;;;;;;;0.10;0.10;;;20.50;99.90;;;;;;4993733;28;20208;-80
2023/09/14 10:57:53;;;;;;;0.10;0.10;;;20.40;99.90;;;;;;4993412;28;20194;-80
2023/09/14 11:00:42;;;;;;;0.10;0.10;;;20.60;99.90;;;;;;4982322;28;20195;-81
2023/09/14 11:03:09;;;;;;;0.10;0.10;;;20.50;99.90;;;;;;4988964;28;20655;-81
2023/09/14 11:05:43;;;;;;;0.10;0.10;;;20.90;99.90;;;;;;4983160;28;20224;-81
2023/09/14 11:08:09;;;;;;;0.10;0.10;;;21.30;99.90;;;;;;4981346;28;20550;-80
2023/09/14 11:10:37;;;;;;;0.10;0.10;;;21.90;99.90;;;;;;4990930;28;20216;-80
2023/09/14 11:13:23;;;;;;;0.10;0.10;;;22.60;99.90;;;;;;4982765;28;20202;-80
2023/09/14 11:16:06;;;;;;;0.10;0.10;;;22.30;99.90;;;;;;4983342;28;20204;-80
2023/09/14 11:18:44;;;;;;;0.10;0.10;;;23.40;99.90;;;;;;4992301;28;20191;-80
2023/09/14 11:21:31;;;;;;;0.10;0.10;;;23.50;99.90;;;;;;4991685;28;20191;-80
2023/09/14 11:23:57;;;;;;;0.10;0.10;;;23.60;99.90;;;;;;4985680;28;20223;-80
2023/09/14 11:26:30;;;;;;;0.10;0.10;;;22.30;99.90;;;;;;4986640;28;20571;-80
2023/09/14 11:28:57;;;;;;;0.10;0.10;;;21.80;99.90;;;;;;4985837;28;20197;-80
2023/09/14 11:31:30;;;;;;;0.10;0.10;;;22.30;99.90;;;;;;4984741;28;20276;-81
2023/09/14 11:33:56;;;;;;;0.10;0.10;;;22.20;99.90;;;;;;4983884;28;20184;-81
2023/09/14 11:36:26;;;;;;;0.10;0.10;;;22.60;99.90;;;;;;4987247;28;20192;-81
2023/09/14 11:38:52;;;;;;;0.10;0.10;;;23.00;99.90;;;;;;4986983;28;20219;-81
2023/09/14 11:41:38;;;;;;;0.10;0.10;;;23.10;99.90;;;;;;4979061;28;20255;-81
2023/09/14 11:44:04;;;;;;;0.10;0.10;;;23.30;99.90;;;;;;4978645;28;20261;-81
2023/09/14 11:46:31;;;;;;;0.10;0.10;;;23.20;99.90;;;;;;4978709;28;20203;-81
2023/09/14 11:48:58;;;;;;;0.10;0.10;;;23.10;99.90;;;;;;4979587;28;20196;-81
2023/09/14 11:51:25;;;;;;;0.10;0.10;;;22.40;99.90;;;;;;4979600;28;20215;-81
2023/09/14 11:53:55;;;;;;;0.10;0.10;;;22.30;99.90;;;;;;4993741;28;20245;-81
2023/09/14 11:56:20;;;;;;;0.10;0.10;;;22.60;99.90;;;;;;4978965;28;20173;-81
2023/09/14 11:58:46;;;;;;;0.10;0.10;;;22.50;99.90;;;;;;4995533;28;20188;-81
2023/09/14 12:01:12;;;;;;;0.10;0.10;;;22.80;99.90;;;;;;4981177;28;20188;-81
2023/09/14 12:03:38;;;;;;;0.10;0.10;;;22.60;99.90;;;;;;4985815;28;20183;-81
2023/09/14 12:06:04;;;;;;;0.10;0.10;;;21.90;99.90;;;;;;4979554;28;20239;-81
2023/09/14 12:08:30;;;;;;;0.10;0.10;;;21.80;99.90;;;;;;4985892;28;20184;-81
2023/09/14 12:10:56;;;;;;;0.10;0.10;;;21.60;99.90;;;;;;4985653;28;20257;-82
2023/09/14 12:13:22;;;;;;;0.10;0.10;;;21.40;99.90;;;;;;4978167;28;20191;-81
2023/09/14 12:15:59;;;;;;;0.10;0.10;;;20.90;99.90;;;;;;4980705;28;20203;-80
2023/09/14 12:18:39;;;;;;;0.10;0.10;;;20.40;99.90;;;;;;4991629;28;20180;-81
2023/09/14 12:21:06;;;;;;;0.10;0.10;;;20.20;99.90;;;;;;4985883;28;20290;-80
2023/09/14 12:23:32;;;;;;;0.10;0.10;;;20.30;99.90;;;;;;4986324;28;20208;-81
2023/09/14 12:25:58;;;;;;;0.10;0.10;;;20.50;99.90;;;;;;4986638;28;20234;-80
2023/09/14 12:28:23;;;;;;;0.10;0.10;;;20.30;99.90;;;;;;4986538;28;20675;-81
2023/09/14 12:30:49;;;;;;;0.10;0.10;;;21.00;99.90;;;;;;4986134;28;20227;-81
2023/09/14 12:33:15;;;;;;;0.10;0.10;;;21.80;99.90;;;;;;4985769;28;20199;-79
2023/09/14 12:35:42;;;;;;;0.10;0.10;;;22.50;99.90;;;;;;4982473;28;20214;-81
2023/09/14 12:38:07;;;;;;;0.10;0.10;;;22.60;99.90;;;;;;4985299;28;20208;-81
2023/09/14 12:40:37;;;;;;;0.10;0.10;;;23.00;99.90;;;;;;4984171;28;20195;-81
2023/09/14 12:43:04;;;;;;;0.10;0.10;;;23.60;99.90;;;;;;4985111;28;20203;-81
2023/09/14 12:45:34;;;;;;;0.10;0.10;;;23.30;99.90;;;;;;4992011;28;20707;-81
2023/09/14 12:48:04;;;;;;;0.10;0.10;;;22.00;99.90;;;;;;4984814;28;20192;-81